Cote D IVoirian Star — A8SL4 — position and weather

sailwx.info

Track history (hours):
 
Tides and Currents Weather Stations Pressure Air Temp Water Temp Dewpoint Dewpoint Depression Visibility Wind Speed Wind Dir Waves Ship Positions

Cote D IVoirian Star

Last reported at 2017-Nov-08 06:46 UTC. Time now 2017-Nov-21 04:11 UTC.
Position N 27°31' W 015°16'.
Warning: this ship's position is 12 days out of date.

Length 185 m; draft 8.7 m.

Type: Cargo ship. MMSI: 636014241.

Date/timePositionNaut miles runAvg speedWind from/ knotsBaromVisibWave heightAir tempDewpointWater temp
2017-Nov-08 06:46N 27°31' W 015°16'416.9
2017-Nov-08 06:30N 27°35' W 015°14'816.3
2017-Nov-08 06:00N 27°42' W 015°11'816.5
2017-Nov-08 05:30N 27°50' W 015°07'816.8
2017-Nov-08 05:00N 27°58' W 015°05'816.4
2017-Nov-08 04:30N 28°06' W 015°02'816.6
2017-Nov-08 04:00N 28°14' W 014°59'816.5
2017-Nov-08 03:30N 28°22' W 014°55'816.1
2017-Nov-08 03:00N 28°29' W 014°52'816.3
2017-Nov-08 02:30N 28°37' W 014°50'1416.7
2017-Nov-08 01:39N 28°51' W 014°45'216.8
2017-Nov-08 01:30N 28°53' W 014°44'1117.1
2017-Nov-08 00:51N 29°04' W 014°40'2416.9
2017-Nov-07 23:25N 29°27' W 014°32'717.2
2017-Nov-07 23:00N 29°34' W 014°30'917.1
2017-Nov-07 22:31N 29°42' W 014°27'816.9
2017-Nov-07 22:00N 29°50' W 014°24'816.9
2017-Nov-07 21:31N 29°58' W 014°22'1616.9
2017-Nov-07 20:35N 30°13' W 014°16'116.7
2017-Nov-07 20:31N 30°14' W 014°16'6416.4
2017-Nov-07 16:37N 31°15' W 013°54'216.3
2017-Nov-07 16:30N 31°17' W 013°54'  
2017-Nov-04 13:24N 49°48' W 003°26'718.0
2017-Nov-04 13:00N 49°51' W 003°17'918.4
2017-Nov-04 12:30N 49°56' W 003°04'918.3
2017-Nov-04 12:01N 49°60' W 002°51'917.9
2017-Nov-04 11:30N 50°02' W 002°38'2815.8
2017-Nov-04 09:46N 50°10' W 001°57'413.8
2017-Nov-04 09:30N 50°11' W 001°51'713.0
2017-Nov-04 09:00N 50°13' W 001°42'612.8
2017-Nov-04 08:30N 50°15' W 001°32'612.7
2017-Nov-04 08:00N 50°17' W 001°22'712.5
2017-Nov-04 07:27N 50°19' W 001°12'3113.9
2017-Nov-04 05:11N 50°27' W 000°25'316.3
2017-Nov-04 05:00N 50°28' W 000°20'816.8
2017-Nov-04 04:30N 50°30' W 000°08'917.4
2017-Nov-04 04:00N 50°33' E 000°06'917.9
2017-Nov-04 03:30N 50°35' E 000°19'917.9
2017-Nov-04 03:00N 50°37' E 000°33'917.2
2017-Nov-04 02:30N 50°41' E 000°45'816.8
2017-Nov-04 02:00N 50°45' E 000°56'816.0
2017-Nov-04 01:30N 50°50' E 001°07'815.2
2017-Nov-04 01:00N 50°54' E 001°17'714.0
2017-Nov-04 00:30N 50°59' E 001°24'612.9
2017-Nov-04 00:00N 51°04' E 001°31'612.6
2017-Nov-03 23:30N 51°09' E 001°38'713.3
2017-Nov-03 23:00N 51°13' E 001°45'714.2
2017-Nov-03 22:30N 51°19' E 001°53'714.9
2017-Nov-03 22:00N 51°25' E 001°60'815.7
2017-Nov-03 21:31N 51°22' E 002°12'815.4
2017-Nov-03 21:00N 51°22' E 002°24'816.7
2017-Nov-03 20:30N 51°22' E 002°37'612.7
2017-Nov-03 20:00N 51°22' E 002°47'816.2
2017-Nov-03 19:30N 51°24' E 003°00'816.5
2017-Nov-03 19:00N 51°25' E 003°13'917.1
2017-Nov-03 18:30N 51°25' E 003°27'714.0
2017-Nov-03 18:01N 51°26' E 003°38'612.8
2017-Nov-03 17:30N 51°22' E 003°45'714.3
2017-Nov-03 17:01N 51°23' E 003°57'4 7.0
2017-Nov-03 16:30N 51°24' E 004°02'612.4
2017-Nov-03 16:01N 51°24' E 004°12'611.1
2017-Nov-03 15:30N 51°19' E 004°16'3 6.4
2017-Nov-03 15:00N 51°16' E 004°17'0 0.7
2017-Nov-03 14:31N 51°16' E 004°17'0 0.3
2017-Nov-03 14:00N 51°16' E 004°16'1 2.1
2017-Nov-03 13:29N 51°16' E 004°15'0 0.0
2017-Nov-03 12:59N 51°16' E 004°15'0 0.0
2017-Nov-03 12:26N 51°16' E 004°15'0 0.0
2017-Nov-03 11:59N 51°16' E 004°15'0 0.0
2017-Nov-03 11:29N 51°16' E 004°15'0 0.0
2017-Nov-03 10:59N 51°16' E 004°15'0 0.0
2017-Nov-03 10:29N 51°16' E 004°15'0 0.0
2017-Nov-03 09:59N 51°16' E 004°15'0 0.0
2017-Nov-03 09:29N 51°16' E 004°15'0 0.0
2017-Nov-03 08:59N 51°16' E 004°15'0 0.0
2017-Nov-03 08:29N 51°16' E 004°15'0 0.0
2017-Nov-03 07:59N 51°16' E 004°15'0 0.0
2017-Nov-03 07:29N 51°16' E 004°15'0 0.0
2017-Nov-03 06:59N 51°16' E 004°15'0 0.0
2017-Nov-03 06:23N 51°16' E 004°15'0 0.0
2017-Nov-03 05:59N 51°16' E 004°15'0 0.0
2017-Nov-03 05:29N 51°16' E 004°15'0 0.0
2017-Nov-03 04:59N 51°16' E 004°15'0 0.0
2017-Nov-03 04:29N 51°16' E 004°15'0 0.0
2017-Nov-03 03:59N 51°16' E 004°15'0 0.0
2017-Nov-03 03:29N 51°16' E 004°15'0 0.0
2017-Nov-03 02:59N 51°16' E 004°15'0 0.0
2017-Nov-03 02:29N 51°16' E 004°15'0 0.0
2017-Nov-03 01:59N 51°16' E 004°15'0 0.0
2017-Nov-03 01:29N 51°16' E 004°15'0 0.0
2017-Nov-03 00:56N 51°16' E 004°15'0 0.0
2017-Nov-03 00:29N 51°16' E 004°15'0 0.0
2017-Nov-02 23:56N 51°16' E 004°15'0 0.0
2017-Nov-02 23:29N 51°16' E 004°15'0 0.0
2017-Nov-02 22:59N 51°16' E 004°15'0 0.0
2017-Nov-02 22:29N 51°16' E 004°15'0 0.0
2017-Nov-02 21:59N 51°16' E 004°15'0 0.0
2017-Nov-02 21:29N 51°16' E 004°15'0 0.0
2017-Nov-02 20:59N 51°16' E 004°15'0 0.0
2017-Nov-02 20:29N 51°16' E 004°15'0 0.0
2017-Nov-02 19:59N 51°16' E 004°15'0 0.0
2017-Nov-02 19:29N 51°16' E 004°15'0 0.0
2017-Nov-02 18:59N 51°16' E 004°15'0 0.0
2017-Nov-02 18:23N 51°16' E 004°15'0 0.0
2017-Nov-02 17:59N 51°16' E 004°15'0 0.0
2017-Nov-02 17:29N 51°16' E 004°15'0 0.0
2017-Nov-02 16:59N 51°16' E 004°15'0 0.0
2017-Nov-02 16:29N 51°16' E 004°15'0 0.0
2017-Nov-02 15:56N 51°16' E 004°15'0 0.0
2017-Nov-02 15:29N 51°16' E 004°15'0 0.0
2017-Nov-02 14:56N 51°16' E 004°15'0 0.0
2017-Nov-02 14:29N 51°16' E 004°15'0 0.0
2017-Nov-02 13:59N 51°16' E 004°15'0 0.0
2017-Nov-02 13:29N 51°16' E 004°15'0 0.0
2017-Nov-02 12:59N 51°16' E 004°15'0 0.0
2017-Nov-02 12:29N 51°16' E 004°15'0 0.0
2017-Nov-02 11:59N 51°16' E 004°15'0 0.0
2017-Nov-02 11:29N 51°16' E 004°15'0 0.0
2017-Nov-02 10:59N 51°16' E 004°15'0 0.0
2017-Nov-02 10:29N 51°16' E 004°15'0 0.0
2017-Nov-02 09:59N 51°16' E 004°15'0 0.0
2017-Nov-02 09:29N 51°16' E 004°15'0 0.0
2017-Nov-02 08:59N 51°16' E 004°15'0 0.0
2017-Nov-02 08:26N 51°16' E 004°15'0 0.0
2017-Nov-02 07:59N 51°16' E 004°15'0 0.0
2017-Nov-02 07:29N 51°16' E 004°15'0 0.0
2017-Nov-02 06:59N 51°16' E 004°15'0 0.0
2017-Nov-02 06:29N 51°16' E 004°15'0 0.0
2017-Nov-02 05:59N 51°16' E 004°15'0 0.0
2017-Nov-02 05:29N 51°16' E 004°15'0 0.0
2017-Nov-02 04:59N 51°16' E 004°15'0 0.0
2017-Nov-02 04:29N 51°16' E 004°15'0 0.0
2017-Nov-02 03:59N 51°16' E 004°15'0 0.0
2017-Nov-02 03:29N 51°16' E 004°15'0 0.0
2017-Nov-02 02:59N 51°16' E 004°15'0 0.0
2017-Nov-02 02:29N 51°16' E 004°15'0 0.0
2017-Nov-02 01:59N 51°16' E 004°15'0 0.0
2017-Nov-02 01:29N 51°16' E 004°15'0 0.0
2017-Nov-02 00:59N 51°16' E 004°15'0 0.0
2017-Nov-02 00:29N 51°16' E 004°15'0 0.0
2017-Nov-01 23:56N 51°16' E 004°15'0 0.0
2017-Nov-01 23:26N 51°16' E 004°15'0 0.0
2017-Nov-01 22:59N 51°16' E 004°15'0 0.0
2017-Nov-01 22:29N 51°16' E 004°15'0 0.0
2017-Nov-01 21:59N 51°16' E 004°15'0 0.0
2017-Nov-01 21:29N 51°16' E 004°15'0 0.0
2017-Nov-01 20:59N 51°16' E 004°15'0 0.0
2017-Nov-01 20:29N 51°16' E 004°15'0 0.0
2017-Nov-01 19:59N 51°16' E 004°15'0 0.0
2017-Nov-01 19:29N 51°16' E 004°15'0 0.0
2017-Nov-01 18:59N 51°16' E 004°15'0 0.0
2017-Nov-01 18:29N 51°16' E 004°15'0 0.0
2017-Nov-01 01:59N 51°16' E 004°15'0 0.0
2017-Nov-01 01:29N 51°16' E 004°15'0 0.0
2017-Nov-01 00:59N 51°16' E 004°15'0 0.0
2017-Nov-01 00:29N 51°16' E 004°15'0 0.0
2017-Oct-31 23:59N 51°16' E 004°15'0 0.0
2017-Oct-31 23:29N 51°16' E 004°15'0 0.0
2017-Oct-31 22:59N 51°16' E 004°15'0 0.0
2017-Oct-31 22:26N 51°16' E 004°15'0 0.0
2017-Oct-31 21:59N 51°16' E 004°15'0 0.0
2017-Oct-31 21:29N 51°16' E 004°15'0 0.0
2017-Oct-31 20:59N 51°16' E 004°15'0 0.0
2017-Oct-31 20:29N 51°16' E 004°15'0 0.0
2017-Oct-31 19:59N 51°16' E 004°15'0 0.0
2017-Oct-31 19:26N 51°16' E 004°15'0 0.0
2017-Oct-31 18:59N 51°16' E 004°15'0 0.0
2017-Oct-31 18:29N 51°16' E 004°15'0 0.0
2017-Oct-31 17:56N 51°16' E 004°15'0 0.0
2017-Oct-31 17:29N 51°16' E 004°15'0 0.0
2017-Oct-31 16:56N 51°16' E 004°15'0 0.0
2017-Oct-31 16:29N 51°16' E 004°15'0 0.0
2017-Oct-31 15:59N 51°16' E 004°15'0 0.0
2017-Oct-31 15:29N 51°16' E 004°15'0 0.0
2017-Oct-31 14:59N 51°16' E 004°15'0 0.0
2017-Oct-31 14:29N 51°16' E 004°15'0 0.0
2017-Oct-31 13:59N 51°16' E 004°15'0 0.0
2017-Oct-31 13:29N 51°16' E 004°15'0 0.0
2017-Oct-31 12:59N 51°16' E 004°15'0 0.0
2017-Oct-31 12:26N 51°16' E 004°15'0 0.0
2017-Oct-31 11:59N 51°16' E 004°15'0 0.0
2017-Oct-31 11:29N 51°16' E 004°15'0 0.0
2017-Oct-31 10:59N 51°16' E 004°15'0 0.0
2017-Oct-31 10:29N 51°16' E 004°15'0 0.0
2017-Oct-31 09:59N 51°16' E 004°15'0 0.0
2017-Oct-31 09:20N 51°16' E 004°15'0 0.0
2017-Oct-31 08:59N 51°16' E 004°15'0 0.0
2017-Oct-31 08:29N 51°16' E 004°15'0 0.0
2017-Oct-31 07:59N 51°16' E 004°15'0 0.0
2017-Oct-31 07:29N 51°16' E 004°15'0 0.0
2017-Oct-31 06:59N 51°16' E 004°15'0 0.0
2017-Oct-31 06:29N 51°16' E 004°15'0 0.0
2017-Oct-31 05:59N 51°16' E 004°15'0 0.0
2017-Oct-31 05:29N 51°16' E 004°15'0 0.0
2017-Oct-31 04:59N 51°16' E 004°15'0 0.0
2017-Oct-31 04:23N 51°16' E 004°15'0 0.0
2017-Oct-31 03:59N 51°16' E 004°15'0 0.0
2017-Oct-31 03:29N 51°16' E 004°15'0 0.0
2017-Oct-31 02:59N 51°16' E 004°15'0 0.0
2017-Oct-31 02:29N 51°16' E 004°15'0 0.0
2017-Oct-31 01:56N 51°16' E 004°15'0 0.0
2017-Oct-31 01:26N 51°16' E 004°15'0 0.0
2017-Oct-31 00:59N 51°16' E 004°15'0 0.0
2017-Oct-31 00:29N 51°16' E 004°15'0 0.0
2017-Oct-30 23:59N 51°16' E 004°15'0 0.0
2017-Oct-30 23:29N 51°16' E 004°15'0 0.0
2017-Oct-30 22:59N 51°16' E 004°15'0 0.0
2017-Oct-30 22:29N 51°16' E 004°15'0 0.0
2017-Oct-30 22:00N 51°16' E 004°15'0 0.0
2017-Oct-30 21:29N 51°16' E 004°15'0 0.0
2017-Oct-30 20:59N 51°16' E 004°15'0 0.0
2017-Oct-30 20:29N 51°16' E 004°15'0 0.0
2017-Oct-30 19:59N 51°16' E 004°15'0 0.0
2017-Oct-30 19:29N 51°16' E 004°15'0 0.0
2017-Oct-30 18:59N 51°16' E 004°15'0 0.0
2017-Oct-30 18:29N 51°16' E 004°15'0 0.0
2017-Oct-30 17:59N 51°16' E 004°15'0 0.0
2017-Oct-30 17:29N 51°16' E 004°15'0 0.0
2017-Oct-30 16:56N 51°16' E 004°15'0 0.0
2017-Oct-30 16:29N 51°16' E 004°15'0 0.0
2017-Oct-30 15:59N 51°16' E 004°15'0 0.0
2017-Oct-30 15:29N 51°16' E 004°15'0 0.0
2017-Oct-30 14:59N 51°16' E 004°15'0 0.0
2017-Oct-30 14:29N 51°16' E 004°15'0 0.0
2017-Oct-30 13:29N 51°16' E 004°15'0 0.0
2017-Oct-30 12:56N 51°16' E 004°15'0 0.0
2017-Oct-30 12:26N 51°16' E 004°15'0 0.0
2017-Oct-30 11:59N 51°16' E 004°15'0 0.0
2017-Oct-30 11:29N 51°16' E 004°15'0 0.0
2017-Oct-30 10:59N 51°16' E 004°15'0 0.0
2017-Oct-30 10:29N 51°16' E 004°15'0 0.0
2017-Oct-30 09:59N 51°16' E 004°15'0 0.0
2017-Oct-30 09:29N 51°16' E 004°15'0 0.0
2017-Oct-30 08:59N 51°16' E 004°15'0 0.0
2017-Oct-30 08:29N 51°16' E 004°15'0 0.0
2017-Oct-30 07:59N 51°16' E 004°15'0 0.0
2017-Oct-30 07:29N 51°16' E 004°15'0 0.0
2017-Oct-30 06:59N 51°16' E 004°15'0 0.0
2017-Oct-30 06:29N 51°16' E 004°15'0 0.0
2017-Oct-30 05:59N 51°16' E 004°15'0 0.0
2017-Oct-30 05:26N 51°16' E 004°15'0 0.0
2017-Oct-30 04:56N 51°16' E 004°15'0 0.0
2017-Oct-30 04:29N 51°16' E 004°15'0 0.0
2017-Oct-30 03:56N 51°16' E 004°15'0 0.0
2017-Oct-30 03:29N 51°16' E 004°15'0 0.0
2017-Oct-30 02:56N 51°16' E 004°15'0 0.0
2017-Oct-30 02:29N 51°16' E 004°15'0 0.0
2017-Oct-30 01:59N 51°16' E 004°15'0 0.0
2017-Oct-30 01:29N 51°16' E 004°15'0 0.0
2017-Oct-30 00:56N 51°16' E 004°15'0 0.0
2017-Oct-30 00:29N 51°16' E 004°15'0 0.0
2017-Oct-29 23:59N 51°16' E 004°15'0 0.0
2017-Oct-29 23:29N 51°16' E 004°15'0 0.0
2017-Oct-29 22:59N 51°16' E 004°15'0 0.0
2017-Oct-29 22:29N 51°16' E 004°15'0 0.0
2017-Oct-29 21:59N 51°16' E 004°15'0 0.0
2017-Oct-29 21:29N 51°16' E 004°15'0 0.0
2017-Oct-29 20:59N 51°16' E 004°15'0 0.0
2017-Oct-29 20:29N 51°16' E 004°15'0 0.0
2017-Oct-29 19:56N 51°16' E 004°15'0 0.0
2017-Oct-29 19:29N 51°16' E 004°15'0 0.0
2017-Oct-29 18:59N 51°16' E 004°15'0 0.0
2017-Oct-29 18:29N 51°16' E 004°15'0 0.0
2017-Oct-29 17:59N 51°16' E 004°15'0 0.0
2017-Oct-29 17:29N 51°16' E 004°15'0 0.0
2017-Oct-29 16:59N 51°16' E 004°15'0 0.0
2017-Oct-29 16:29N 51°16' E 004°15'0 0.8
2017-Oct-29 16:00N 51°16' E 004°15'1 2.4
2017-Oct-29 15:31N 51°16' E 004°17'0 0.0
2017-Oct-29 15:00N 51°16' E 004°17'1 2.8
2017-Oct-29 14:30N 51°16' E 004°19'4 8.8
2017-Oct-29 14:00N 51°21' E 004°16'5 9.7
2017-Oct-29 13:30N 51°23' E 004°09'510.6
2017-Oct-29 13:00N 51°25' E 004°02'510.5
2017-Oct-29 12:31N 51°22' E 003°55'612.6
2017-Oct-29 12:00N 51°22' E 003°45'713.1
2017-Oct-29 11:30N 51°25' E 003°36'4 8.8
2017-Oct-29 11:00N 51°25' E 003°29'714.2
2017-Oct-29 10:31N 51°24' E 003°18'714.1
2017-Oct-29 10:01N 51°24' E 003°07'713.4
2017-Oct-29 09:30N 51°23' E 002°56'714.4
2017-Oct-29 09:00N 51°22' E 002°45'610.0
2017-Oct-29 08:25N 51°22' E 002°35'512.7
2017-Oct-29 08:00N 51°21' E 002°27'713.4
2017-Oct-29 07:29N 51°17' E 002°18'612.5
2017-Oct-29 07:00N 51°15' E 002°09'  
Track history (hours):
 
Tides and Currents Weather Stations Pressure Air Temp Water Temp Dewpoint Dewpoint Depression Visibility Wind Speed Wind Dir Waves Ship Positions

Cote D IVoirian Star

Last reported at 2017-Nov-08 06:46 UTC. Time now 2017-Nov-21 04:11 UTC.
Position N 27°31' W 015°16'.
Warning: this ship's position is 12 days out of date.

Length 185 m; draft 8.7 m.

Type: Cargo ship. MMSI: 636014241.

Date/timePositionNaut miles runAvg speedWind from/ knotsBaromVisibWave heightAir tempDewpointWater temp
2017-Nov-08 06:46N 27°31' W 015°16'416.9
2017-Nov-08 06:30N 27°35' W 015°14'816.3
2017-Nov-08 06:00N 27°42' W 015°11'816.5
2017-Nov-08 05:30N 27°50' W 015°07'816.8
2017-Nov-08 05:00N 27°58' W 015°05'816.4
2017-Nov-08 04:30N 28°06' W 015°02'816.6
2017-Nov-08 04:00N 28°14' W 014°59'816.5
2017-Nov-08 03:30N 28°22' W 014°55'816.1
2017-Nov-08 03:00N 28°29' W 014°52'816.3
2017-Nov-08 02:30N 28°37' W 014°50'1416.7
2017-Nov-08 01:39N 28°51' W 014°45'216.8
2017-Nov-08 01:30N 28°53' W 014°44'1117.1
2017-Nov-08 00:51N 29°04' W 014°40'2416.9
2017-Nov-07 23:25N 29°27' W 014°32'717.2
2017-Nov-07 23:00N 29°34' W 014°30'917.1
2017-Nov-07 22:31N 29°42' W 014°27'816.9
2017-Nov-07 22:00N 29°50' W 014°24'816.9
2017-Nov-07 21:31N 29°58' W 014°22'1616.9
2017-Nov-07 20:35N 30°13' W 014°16'116.7
2017-Nov-07 20:31N 30°14' W 014°16'6416.4
2017-Nov-07 16:37N 31°15' W 013°54'216.3
2017-Nov-07 16:30N 31°17' W 013°54'  
2017-Nov-04 13:24N 49°48' W 003°26'718.0
2017-Nov-04 13:00N 49°51' W 003°17'918.4
2017-Nov-04 12:30N 49°56' W 003°04'918.3
2017-Nov-04 12:01N 49°60' W 002°51'917.9
2017-Nov-04 11:30N 50°02' W 002°38'2815.8
2017-Nov-04 09:46N 50°10' W 001°57'413.8
2017-Nov-04 09:30N 50°11' W 001°51'713.0
2017-Nov-04 09:00N 50°13' W 001°42'612.8
2017-Nov-04 08:30N 50°15' W 001°32'612.7
2017-Nov-04 08:00N 50°17' W 001°22'712.5
2017-Nov-04 07:27N 50°19' W 001°12'3113.9
2017-Nov-04 05:11N 50°27' W 000°25'316.3
2017-Nov-04 05:00N 50°28' W 000°20'816.8
2017-Nov-04 04:30N 50°30' W 000°08'917.4
2017-Nov-04 04:00N 50°33' E 000°06'917.9
2017-Nov-04 03:30N 50°35' E 000°19'917.9
2017-Nov-04 03:00N 50°37' E 000°33'917.2
2017-Nov-04 02:30N 50°41' E 000°45'816.8
2017-Nov-04 02:00N 50°45' E 000°56'816.0
2017-Nov-04 01:30N 50°50' E 001°07'815.2
2017-Nov-04 01:00N 50°54' E 001°17'714.0
2017-Nov-04 00:30N 50°59' E 001°24'612.9
2017-Nov-04 00:00N 51°04' E 001°31'612.6
2017-Nov-03 23:30N 51°09' E 001°38'713.3
2017-Nov-03 23:00N 51°13' E 001°45'714.2
2017-Nov-03 22:30N 51°19' E 001°53'714.9
2017-Nov-03 22:00N 51°25' E 001°60'815.7
2017-Nov-03 21:31N 51°22' E 002°12'815.4
2017-Nov-03 21:00N 51°22' E 002°24'816.7
2017-Nov-03 20:30N 51°22' E 002°37'612.7
2017-Nov-03 20:00N 51°22' E 002°47'816.2
2017-Nov-03 19:30N 51°24' E 003°00'816.5
2017-Nov-03 19:00N 51°25' E 003°13'917.1
2017-Nov-03 18:30N 51°25' E 003°27'714.0
2017-Nov-03 18:01N 51°26' E 003°38'612.8
2017-Nov-03 17:30N 51°22' E 003°45'714.3
2017-Nov-03 17:01N 51°23' E 003°57'4 7.0
2017-Nov-03 16:30N 51°24' E 004°02'612.4
2017-Nov-03 16:01N 51°24' E 004°12'611.1
2017-Nov-03 15:30N 51°19' E 004°16'3 6.4
2017-Nov-03 15:00N 51°16' E 004°17'0 0.7
2017-Nov-03 14:31N 51°16' E 004°17'0 0.3
2017-Nov-03 14:00N 51°16' E 004°16'1 2.1
2017-Nov-03 13:29N 51°16' E 004°15'0 0.0
2017-Nov-03 12:59N 51°16' E 004°15'0 0.0
2017-Nov-03 12:26N 51°16' E 004°15'0 0.0
2017-Nov-03 11:59N 51°16' E 004°15'0 0.0
2017-Nov-03 11:29N 51°16' E 004°15'0 0.0
2017-Nov-03 10:59N 51°16' E 004°15'0 0.0
2017-Nov-03 10:29N 51°16' E 004°15'0 0.0
2017-Nov-03 09:59N 51°16' E 004°15'0 0.0
2017-Nov-03 09:29N 51°16' E 004°15'0 0.0
2017-Nov-03 08:59N 51°16' E 004°15'0 0.0
2017-Nov-03 08:29N 51°16' E 004°15'0 0.0
2017-Nov-03 07:59N 51°16' E 004°15'0 0.0
2017-Nov-03 07:29N 51°16' E 004°15'0 0.0
2017-Nov-03 06:59N 51°16' E 004°15'0 0.0
2017-Nov-03 06:23N 51°16' E 004°15'0 0.0
2017-Nov-03 05:59N 51°16' E 004°15'0 0.0
2017-Nov-03 05:29N 51°16' E 004°15'0 0.0
2017-Nov-03 04:59N 51°16' E 004°15'0 0.0
2017-Nov-03 04:29N 51°16' E 004°15'0 0.0
2017-Nov-03 03:59N 51°16' E 004°15'0 0.0
2017-Nov-03 03:29N 51°16' E 004°15'0 0.0
2017-Nov-03 02:59N 51°16' E 004°15'0 0.0
2017-Nov-03 02:29N 51°16' E 004°15'0 0.0
2017-Nov-03 01:59N 51°16' E 004°15'0 0.0
2017-Nov-03 01:29N 51°16' E 004°15'0 0.0
2017-Nov-03 00:56N 51°16' E 004°15'0 0.0
2017-Nov-03 00:29N 51°16' E 004°15'0 0.0
2017-Nov-02 23:56N 51°16' E 004°15'0 0.0
2017-Nov-02 23:29N 51°16' E 004°15'0 0.0
2017-Nov-02 22:59N 51°16' E 004°15'0 0.0
2017-Nov-02 22:29N 51°16' E 004°15'0 0.0
2017-Nov-02 21:59N 51°16' E 004°15'0 0.0
2017-Nov-02 21:29N 51°16' E 004°15'0 0.0
2017-Nov-02 20:59N 51°16' E 004°15'0 0.0
2017-Nov-02 20:29N 51°16' E 004°15'0 0.0
2017-Nov-02 19:59N 51°16' E 004°15'0 0.0
2017-Nov-02 19:29N 51°16' E 004°15'0 0.0
2017-Nov-02 18:59N 51°16' E 004°15'0 0.0
2017-Nov-02 18:23N 51°16' E 004°15'0 0.0
2017-Nov-02 17:59N 51°16' E 004°15'0 0.0
2017-Nov-02 17:29N 51°16' E 004°15'0 0.0
2017-Nov-02 16:59N 51°16' E 004°15'0 0.0
2017-Nov-02 16:29N 51°16' E 004°15'0 0.0
2017-Nov-02 15:56N 51°16' E 004°15'0 0.0
2017-Nov-02 15:29N 51°16' E 004°15'0 0.0
2017-Nov-02 14:56N 51°16' E 004°15'0 0.0
2017-Nov-02 14:29N 51°16' E 004°15'0 0.0
2017-Nov-02 13:59N 51°16' E 004°15'0 0.0
2017-Nov-02 13:29N 51°16' E 004°15'0 0.0
2017-Nov-02 12:59N 51°16' E 004°15'0 0.0
2017-Nov-02 12:29N 51°16' E 004°15'0 0.0
2017-Nov-02 11:59N 51°16' E 004°15'0 0.0
2017-Nov-02 11:29N 51°16' E 004°15'0 0.0
2017-Nov-02 10:59N 51°16' E 004°15'0 0.0
2017-Nov-02 10:29N 51°16' E 004°15'0 0.0
2017-Nov-02 09:59N 51°16' E 004°15'0 0.0
2017-Nov-02 09:29N 51°16' E 004°15'0 0.0
2017-Nov-02 08:59N 51°16' E 004°15'0 0.0
2017-Nov-02 08:26N 51°16' E 004°15'0 0.0
2017-Nov-02 07:59N 51°16' E 004°15'0 0.0
2017-Nov-02 07:29N 51°16' E 004°15'0 0.0
2017-Nov-02 06:59N 51°16' E 004°15'0 0.0
2017-Nov-02 06:29N 51°16' E 004°15'0 0.0
2017-Nov-02 05:59N 51°16' E 004°15'0 0.0
2017-Nov-02 05:29N 51°16' E 004°15'0 0.0
2017-Nov-02 04:59N 51°16' E 004°15'0 0.0
2017-Nov-02 04:29N 51°16' E 004°15'0 0.0
2017-Nov-02 03:59N 51°16' E 004°15'0 0.0
2017-Nov-02 03:29N 51°16' E 004°15'0 0.0
2017-Nov-02 02:59N 51°16' E 004°15'0 0.0
2017-Nov-02 02:29N 51°16' E 004°15'0 0.0
2017-Nov-02 01:59N 51°16' E 004°15'0 0.0
2017-Nov-02 01:29N 51°16' E 004°15'0 0.0
2017-Nov-02 00:59N 51°16' E 004°15'0 0.0
2017-Nov-02 00:29N 51°16' E 004°15'0 0.0
2017-Nov-01 23:56N 51°16' E 004°15'0 0.0
2017-Nov-01 23:26N 51°16' E 004°15'0 0.0
2017-Nov-01 22:59N 51°16' E 004°15'0 0.0
2017-Nov-01 22:29N 51°16' E 004°15'0 0.0
2017-Nov-01 21:59N 51°16' E 004°15'0 0.0
2017-Nov-01 21:29N 51°16' E 004°15'0 0.0
2017-Nov-01 20:59N 51°16' E 004°15'0 0.0
2017-Nov-01 20:29N 51°16' E 004°15'0 0.0
2017-Nov-01 19:59N 51°16' E 004°15'0 0.0
2017-Nov-01 19:29N 51°16' E 004°15'0 0.0
2017-Nov-01 18:59N 51°16' E 004°15'0 0.0
2017-Nov-01 18:29N 51°16' E 004°15'0 0.0
2017-Nov-01 01:59N 51°16' E 004°15'0 0.0
2017-Nov-01 01:29N 51°16' E 004°15'0 0.0
2017-Nov-01 00:59N 51°16' E 004°15'0 0.0
2017-Nov-01 00:29N 51°16' E 004°15'0 0.0
2017-Oct-31 23:59N 51°16' E 004°15'0 0.0
2017-Oct-31 23:29N 51°16' E 004°15'0 0.0
2017-Oct-31 22:59N 51°16' E 004°15'0 0.0
2017-Oct-31 22:26N 51°16' E 004°15'0 0.0
2017-Oct-31 21:59N 51°16' E 004°15'0 0.0
2017-Oct-31 21:29N 51°16' E 004°15'0 0.0
2017-Oct-31 20:59N 51°16' E 004°15'0 0.0
2017-Oct-31 20:29N 51°16' E 004°15'0 0.0
2017-Oct-31 19:59N 51°16' E 004°15'0 0.0
2017-Oct-31 19:26N 51°16' E 004°15'0 0.0
2017-Oct-31 18:59N 51°16' E 004°15'0 0.0
2017-Oct-31 18:29N 51°16' E 004°15'0 0.0
2017-Oct-31 17:56N 51°16' E 004°15'0 0.0
2017-Oct-31 17:29N 51°16' E 004°15'0 0.0
2017-Oct-31 16:56N 51°16' E 004°15'0 0.0
2017-Oct-31 16:29N 51°16' E 004°15'0 0.0
2017-Oct-31 15:59N 51°16' E 004°15'0 0.0
2017-Oct-31 15:29N 51°16' E 004°15'0 0.0
2017-Oct-31 14:59N 51°16' E 004°15'0 0.0
2017-Oct-31 14:29N 51°16' E 004°15'0 0.0
2017-Oct-31 13:59N 51°16' E 004°15'0 0.0
2017-Oct-31 13:29N 51°16' E 004°15'0 0.0
2017-Oct-31 12:59N 51°16' E 004°15'0 0.0
2017-Oct-31 12:26N 51°16' E 004°15'0 0.0
2017-Oct-31 11:59N 51°16' E 004°15'0 0.0
2017-Oct-31 11:29N 51°16' E 004°15'0 0.0
2017-Oct-31 10:59N 51°16' E 004°15'0 0.0
2017-Oct-31 10:29N 51°16' E 004°15'0 0.0
2017-Oct-31 09:59N 51°16' E 004°15'0 0.0
2017-Oct-31 09:20N 51°16' E 004°15'0 0.0
2017-Oct-31 08:59N 51°16' E 004°15'0 0.0
2017-Oct-31 08:29N 51°16' E 004°15'0 0.0
2017-Oct-31 07:59N 51°16' E 004°15'0 0.0
2017-Oct-31 07:29N 51°16' E 004°15'0 0.0
2017-Oct-31 06:59N 51°16' E 004°15'0 0.0
2017-Oct-31 06:29N 51°16' E 004°15'0 0.0
2017-Oct-31 05:59N 51°16' E 004°15'0 0.0
2017-Oct-31 05:29N 51°16' E 004°15'0 0.0
2017-Oct-31 04:59N 51°16' E 004°15'0 0.0
2017-Oct-31 04:23N 51°16' E 004°15'0 0.0
2017-Oct-31 03:59N 51°16' E 004°15'0 0.0
2017-Oct-31 03:29N 51°16' E 004°15'0 0.0
2017-Oct-31 02:59N 51°16' E 004°15'0 0.0
2017-Oct-31 02:29N 51°16' E 004°15'0 0.0
2017-Oct-31 01:56N 51°16' E 004°15'0 0.0
2017-Oct-31 01:26N 51°16' E 004°15'0 0.0
2017-Oct-31 00:59N 51°16' E 004°15'0 0.0
2017-Oct-31 00:29N 51°16' E 004°15'0 0.0
2017-Oct-30 23:59N 51°16' E 004°15'0 0.0
2017-Oct-30 23:29N 51°16' E 004°15'0 0.0
2017-Oct-30 22:59N 51°16' E 004°15'0 0.0
2017-Oct-30 22:29N 51°16' E 004°15'0 0.0
2017-Oct-30 22:00N 51°16' E 004°15'0 0.0
2017-Oct-30 21:29N 51°16' E 004°15'0 0.0
2017-Oct-30 20:59N 51°16' E 004°15'0 0.0
2017-Oct-30 20:29N 51°16' E 004°15'0 0.0
2017-Oct-30 19:59N 51°16' E 004°15'0 0.0
2017-Oct-30 19:29N 51°16' E 004°15'0 0.0
2017-Oct-30 18:59N 51°16' E 004°15'0 0.0
2017-Oct-30 18:29N 51°16' E 004°15'0 0.0
2017-Oct-30 17:59N 51°16' E 004°15'0 0.0
2017-Oct-30 17:29N 51°16' E 004°15'0 0.0
2017-Oct-30 16:56N 51°16' E 004°15'0 0.0
2017-Oct-30 16:29N 51°16' E 004°15'0 0.0
2017-Oct-30 15:59N 51°16' E 004°15'0 0.0
2017-Oct-30 15:29N 51°16' E 004°15'0 0.0
2017-Oct-30 14:59N 51°16' E 004°15'0 0.0
2017-Oct-30 14:29N 51°16' E 004°15'0 0.0
2017-Oct-30 13:29N 51°16' E 004°15'0 0.0
2017-Oct-30 12:56N 51°16' E 004°15'0 0.0
2017-Oct-30 12:26N 51°16' E 004°15'0 0.0
2017-Oct-30 11:59N 51°16' E 004°15'0 0.0
2017-Oct-30 11:29N 51°16' E 004°15'0 0.0
2017-Oct-30 10:59N 51°16' E 004°15'0 0.0
2017-Oct-30 10:29N 51°16' E 004°15'0 0.0
2017-Oct-30 09:59N 51°16' E 004°15'0 0.0
2017-Oct-30 09:29N 51°16' E 004°15'0 0.0
2017-Oct-30 08:59N 51°16' E 004°15'0 0.0
2017-Oct-30 08:29N 51°16' E 004°15'0 0.0
2017-Oct-30 07:59N 51°16' E 004°15'0 0.0
2017-Oct-30 07:29N 51°16' E 004°15'0 0.0
2017-Oct-30 06:59N 51°16' E 004°15'0 0.0
2017-Oct-30 06:29N 51°16' E 004°15'0 0.0
2017-Oct-30 05:59N 51°16' E 004°15'0 0.0
2017-Oct-30 05:26N 51°16' E 004°15'0 0.0
2017-Oct-30 04:56N 51°16' E 004°15'0 0.0
2017-Oct-30 04:29N 51°16' E 004°15'0 0.0
2017-Oct-30 03:56N 51°16' E 004°15'0 0.0
2017-Oct-30 03:29N 51°16' E 004°15'0 0.0
2017-Oct-30 02:56N 51°16' E 004°15'0 0.0
2017-Oct-30 02:29N 51°16' E 004°15'0 0.0
2017-Oct-30 01:59N 51°16' E 004°15'0 0.0
2017-Oct-30 01:29N 51°16' E 004°15'0 0.0
2017-Oct-30 00:56N 51°16' E 004°15'0 0.0
2017-Oct-30 00:29N 51°16' E 004°15'0 0.0
2017-Oct-29 23:59N 51°16' E 004°15'0 0.0
2017-Oct-29 23:29N 51°16' E 004°15'0 0.0
2017-Oct-29 22:59N 51°16' E 004°15'0 0.0
2017-Oct-29 22:29N 51°16' E 004°15'0 0.0
2017-Oct-29 21:59N 51°16' E 004°15'0 0.0
2017-Oct-29 21:29N 51°16' E 004°15'0 0.0
2017-Oct-29 20:59N 51°16' E 004°15'0 0.0
2017-Oct-29 20:29N 51°16' E 004°15'0 0.0
2017-Oct-29 19:56N 51°16' E 004°15'0 0.0
2017-Oct-29 19:29N 51°16' E 004°15'0 0.0
2017-Oct-29 18:59N 51°16' E 004°15'0 0.0
2017-Oct-29 18:29N 51°16' E 004°15'0 0.0
2017-Oct-29 17:59N 51°16' E 004°15'0 0.0
2017-Oct-29 17:29N 51°16' E 004°15'0 0.0
2017-Oct-29 16:59N 51°16' E 004°15'0 0.0
2017-Oct-29 16:29N 51°16' E 004°15'0 0.8
2017-Oct-29 16:00N 51°16' E 004°15'1 2.4
2017-Oct-29 15:31N 51°16' E 004°17'0 0.0
2017-Oct-29 15:00N 51°16' E 004°17'1 2.8
2017-Oct-29 14:30N 51°16' E 004°19'4 8.8
2017-Oct-29 14:00N 51°21' E 004°16'5 9.7
2017-Oct-29 13:30N 51°23' E 004°09'510.6
2017-Oct-29 13:00N 51°25' E 004°02'510.5
2017-Oct-29 12:31N 51°22' E 003°55'612.6
2017-Oct-29 12:00N 51°22' E 003°45'713.1
2017-Oct-29 11:30N 51°25' E 003°36'4 8.8
2017-Oct-29 11:00N 51°25' E 003°29'714.2
2017-Oct-29 10:31N 51°24' E 003°18'714.1
2017-Oct-29 10:01N 51°24' E 003°07'713.4
2017-Oct-29 09:30N 51°23' E 002°56'714.4
2017-Oct-29 09:00N 51°22' E 002°45'610.0
2017-Oct-29 08:25N 51°22' E 002°35'512.7
2017-Oct-29 08:00N 51°21' E 002°27'713.4
2017-Oct-29 07:29N 51°17' E 002°18'612.5
2017-Oct-29 07:00N 51°15' E 002°09'  

Dump ship's entire track history